Bitte eine E-Mail-Adresse für das Benutzerkonto eingeben. Ein Bestätigungscode wird dann an diese verschickt. Sobald der Code vorliegt, kann ein neues Passwort für das Benutzerkonto festgelegt werden.

 

 

WebCam

  
Kamera Halle
Kamera Vorplatz
Wetter EDDS

METAR

EDDS 210750Z VRB02KT 9999 FEW025 BKN120 15/10 Q1025 NOSIG =


TAF

EDDS 210500Z 2106/2206 VRB03KT CAVOK =


SR/SS

04:23 / 18:24 UTC
(EDSO 21-08-2017)

Austräger der GPS Triangle WM 2017